Aeroporto :
LOGIN :

Iscrizione | Disclaimer

   EN    FR    IT 

 










Sommario :    VFR   VFR Marginale   IFR   IFR Intensivo   IFR Molto Intensivo
Visibilità : 
Base nubi : 
>= 8 km
>= 3000ft
5 / 8 km
1000 / 3000 ft
1500m / 5 km
500 / 1000 ft
800 / 1500m
200 / 500 ft
< 800m
< 200 ft
Simboli :   Temporali  Nebbia  Neve Forte  Precipitazioni Forti  Vento > 20 kt
SIGMETs :   Varie  Temporali  Ghiacco  Turbolenza  Onda orograficha  Ceneri Vulcaniche






- Altitudine del aeroporto : 1079 ft


ETIK - Illesheim Air Base

ULTIMO METAR :
  • 260456Z AUTO 00000KT 5000 BR BKN001 M02/M02 A3012 RMK AO2 BKN V OVC SLP222 T10221022 $

METARs OBSOLETI :
  • 260445Z AUTO 00000KT 4400 BR OVC001 M02/M02 A3012 RMK AO2 SLP222 $
  • 260430Z AUTO 00000KT 5000 BR OVC000 M02/M02 A3012 RMK AO2 SLP222 $
  • 260415Z AUTO 00000KT 2000 BR OVC000 M02/M02 A3012 RMK AO2 VIS 1000V2200 SLP222 $
  • 260356Z AUTO 00000KT 1200 R24/1000VP1500 BR VV000 M02/M02 A3012 RMK AO2 SLP222 T10251025 $
  • 260256Z AUTO 00000KT 0400 R24/0400V0500 FZFG VV000 M02/M02 A3012 RMK AO2 FZDZB42E43FZDZB45E49 SLP222 P0000 60000 T10221022 57008 $
  • 260245Z AUTO 00000KT 0200 R24/0350V0400 -FZDZ FZFG VV000 M02/M02 A3012 RMK AO2 FZDZB42E43FZDZB45 SLP222 $
  • 260226Z AUTO 00000KT 0200 R24/0350 FZFG VV000 M02/M02 A3012 RMK AO2 SLP222 $
  • 260211Z AUTO 00000KT 0400 R24/0350V0450 FZFG VV000 M02/M02 A3013 RMK AO2 SLP225 $

Previsioni scadute.



MetMap, La meteo Aeronautica in un colpo d'occhio ! - Copyright ORBIFLY Dicembre 2007 - Disclaimer

ORBIFLY MET'MAP TEAM :

Programmazione e sviluppo : Alexandra Zaïnal
Concezione : Baudouin d'Aumeries
Aiuto per la programmazione : Marc-Olivier Méhu
Supporto tecnico e logistico : Manuel Goepfert
Aiuto per la traduzione : Arnaldo La Scala

Contatto : metmap@orbifly.com




FONTI E CREDITI :

   NOAA